createdAt,value
2022-11-02T04:14:07.130Z,94127.01
2022-11-02T04:19:28.942Z,94128.59
2022-11-02T04:24:53.316Z,94121.42
2022-11-02T04:30:00.296Z,94124.86
2022-11-02T04:35:10.543Z,94136.33
2022-11-02T04:40:19.357Z,94127.02
2022-11-02T04:45:26.290Z,94138.19
2022-11-02T04:50:33.909Z,94134.20
2022-11-02T04:55:41.630Z,94131.53
2022-11-02T05:00:48.935Z,94137.11
2022-11-02T05:05:59.225Z,94129.15
2022-11-02T05:11:07.805Z,94130.75
2022-11-02T05:16:18.114Z,94140.31
2022-11-02T05:21:24.867Z,94142.08
2022-11-02T05:26:31.644Z,94141.89
2022-11-02T05:31:39.227Z,94142.45
2022-11-02T05:36:47.430Z,94141.38
2022-11-02T05:41:54.254Z,94137.91
2022-11-02T05:47:00.924Z,94140.30
2022-11-02T05:52:07.699Z,94139.53
2022-11-02T05:57:14.826Z,94138.18
2022-11-02T06:02:23.352Z,94142.44
2022-11-02T06:07:31.059Z,94143.23
2022-11-02T06:12:38.625Z,94145.63
2022-11-02T06:17:45.477Z,94153.34
2022-11-02T06:22:53.504Z,94158.38
2022-11-02T06:28:02.275Z,94167.41
2022-11-02T06:33:09.485Z,94174.00
2022-11-02T06:38:20.129Z,94181.50
2022-11-02T06:43:29.151Z,94184.98
2022-11-02T06:48:37.742Z,94186.31
2022-11-02T06:53:45.581Z,94195.11
2022-11-02T06:58:53.145Z,94191.91
2022-11-02T07:03:59.869Z,94200.42
2022-11-02T07:09:07.141Z,94200.67
2022-11-02T07:14:15.328Z,94197.20
2022-11-02T07:19:22.963Z,94201.48
2022-11-02T07:24:31.369Z,94203.10
2022-11-02T07:29:38.014Z,94210.55
2022-11-02T07:34:44.734Z,94210.52
2022-11-02T07:39:52.709Z,94213.47
2022-11-02T07:45:00.733Z,94214.00
2022-11-02T07:50:09.306Z,94214.53
2022-11-02T07:55:19.564Z,94213.19
2022-11-02T08:00:30.814Z,94217.70
2022-11-02T08:05:42.089Z,94221.94
2022-11-02T08:10:52.354Z,94224.63
2022-11-02T08:15:59.149Z,94224.34
2022-11-02T08:21:06.030Z,94226.98
2022-11-02T08:26:15.266Z,94225.88
2022-11-02T08:31:22.855Z,94226.67
2022-11-02T08:36:30.570Z,94223.47
2022-11-02T08:41:38.309Z,94215.20
2022-11-02T08:46:45.502Z,94216.25
2022-11-02T08:51:52.361Z,94216.37
2022-11-02T08:56:59.548Z,94214.25
2022-11-02T09:02:06.468Z,94221.09
2022-11-02T09:07:13.891Z,94220.98
2022-11-02T09:12:21.296Z,94214.45
2022-11-02T09:17:28.049Z,94221.59
2022-11-02T09:22:34.949Z,94224.20
2022-11-02T09:27:45.810Z,94225.86
2022-11-02T09:33:05.839Z,94227.41
2022-11-02T09:38:14.126Z,94227.52
2022-11-02T09:43:40.087Z,94228.95
2022-11-02T09:48:54.125Z,94223.77
2022-11-02T09:54:37.000Z,94227.31
2022-11-02T09:59:45.816Z,94216.12
2022-11-02T10:05:43.423Z,94223.69
2022-11-02T10:11:08.402Z,94217.98
2022-11-02T10:16:35.307Z,94219.09
2022-11-02T10:21:46.113Z,94214.55
2022-11-02T10:26:59.792Z,94214.86
2022-11-02T10:32:07.143Z,94207.39
2022-11-02T10:37:21.321Z,94205.72
2022-11-02T10:42:59.731Z,94208.21
2022-11-02T10:48:28.854Z,94205.19
2022-11-02T10:53:50.634Z,94203.91
2022-11-02T10:59:12.824Z,94200.95
2022-11-02T11:04:28.999Z,94198.14
2022-11-02T11:09:49.127Z,94200.09
2022-11-02T11:20:35.904Z,94189.09
2022-11-02T11:25:44.864Z,94184.58
2022-11-02T11:31:00.217Z,94181.70
2022-11-02T11:36:08.711Z,94181.73
2022-11-02T11:41:17.016Z,94177.91
2022-11-02T11:46:24.691Z,94172.23
2022-11-02T11:51:46.122Z,94178.67
2022-11-02T11:56:57.497Z,94177.64
2022-11-02T12:02:08.835Z,94170.89
2022-11-02T12:07:40.547Z,94161.77
2022-11-02T12:13:10.728Z,94162.73
2022-11-02T12:18:41.362Z,94153.88
2022-11-02T12:24:08.631Z,94156.11
2022-11-02T12:29:48.412Z,94144.81
2022-11-02T12:35:27.993Z,94139.41
2022-11-02T12:40:49.942Z,94134.91
2022-11-02T12:46:21.131Z,94133.72
2022-11-02T12:51:41.944Z,94129.52
2022-11-02T12:56:55.353Z,94123.63
2022-11-02T13:02:21.552Z,94124.48
2022-11-02T13:07:44.901Z,94117.30
2022-11-02T13:13:02.319Z,94111.71
2022-11-02T13:18:25.329Z,94118.35
2022-11-02T13:23:37.291Z,94117.00
2022-11-02T13:28:54.410Z,94109.02
2022-11-02T13:34:12.562Z,94113.47
2022-11-02T13:39:32.701Z,94108.50
2022-11-02T13:44:58.988Z,94113.61
2022-11-02T13:50:09.939Z,94113.84
2022-11-02T13:55:27.625Z,94115.09
2022-11-02T14:00:44.580Z,94118.64
2022-11-02T14:06:04.555Z,94121.56
2022-11-02T14:11:19.166Z,94119.55
2022-11-02T14:16:48.844Z,94124.62
2022-11-02T14:22:06.498Z,94128.89
2022-11-02T14:27:19.549Z,94129.80
2022-11-02T14:32:46.177Z,94131.23
2022-11-02T14:38:15.420Z,94139.80
2022-11-02T14:43:49.451Z,94141.74
2022-11-02T14:49:00.492Z,94142.88
2022-11-02T14:54:20.250Z,94144.22
2022-11-02T14:59:42.713Z,94150.78
2022-11-02T15:04:59.832Z,94148.64
2022-11-02T15:10:23.404Z,94146.69
2022-11-02T15:15:40.346Z,94149.66
2022-11-02T15:20:48.578Z,94158.38
2022-11-02T15:25:58.200Z,94166.36
2022-11-02T15:31:24.694Z,94167.97
2022-11-02T15:36:37.136Z,94168.34
2022-11-02T15:42:06.040Z,94169.24
2022-11-02T15:47:46.531Z,94172.88
2022-11-02T15:53:35.440Z,94180.01
2022-11-02T15:59:03.150Z,94177.63
2022-11-02T16:04:28.989Z,94166.49
2022-11-02T16:09:48.574Z,94175.27
2022-11-02T16:15:40.692Z,94170.84
2022-11-02T16:20:51.794Z,94166.48
2022-11-02T16:26:09.912Z,94175.16
2022-11-02T16:31:32.850Z,94174.05
2022-11-02T16:36:40.998Z,94181.69
2022-11-02T16:41:55.584Z,94190.80
2022-11-02T16:47:15.848Z,94195.59
2022-11-02T16:52:27.196Z,94187.52
2022-11-02T16:57:38.298Z,94189.59
2022-11-02T17:02:47.161Z,94198.89
2022-11-02T17:08:09.194Z,94201.06
2022-11-02T17:13:22.029Z,94197.33
2022-11-02T17:18:31.384Z,94202.13
2022-11-02T17:23:39.991Z,94192.65
2022-11-02T17:28:49.120Z,94210.08
2022-11-02T17:33:59.373Z,94211.27
2022-11-02T17:39:06.307Z,94211.27
2022-11-02T17:44:17.043Z,94229.22
2022-11-02T17:49:24.228Z,94226.72
2022-11-02T17:54:32.152Z,94235.84
2022-11-02T17:59:39.400Z,94231.05
2022-11-02T18:04:46.439Z,94229.64
2022-11-02T18:09:53.585Z,94229.61
2022-11-02T18:15:00.998Z,94235.89
2022-11-02T18:20:10.043Z,94235.75
2022-11-02T18:30:29.994Z,94227.34
2022-11-02T18:35:38.536Z,94231.09
2022-11-02T18:40:45.607Z,94228.03
2022-11-02T18:45:52.565Z,94211.91
2022-11-02T18:51:02.523Z,94210.59
2022-11-02T18:56:11.379Z,94214.31
2022-11-02T19:01:21.441Z,94220.11
2022-11-02T19:06:49.875Z,94222.28
2022-11-02T19:12:12.474Z,94231.30
2022-11-02T19:17:20.089Z,94235.02
2022-11-02T19:22:28.693Z,94230.70
2022-11-02T19:27:35.858Z,94227.28
2022-11-02T19:32:42.639Z,94233.08
2022-11-02T19:37:49.625Z,94233.84
2022-11-02T19:42:56.517Z,94229.38
2022-11-02T19:48:05.137Z,94226.95
2022-11-02T19:53:14.175Z,94229.22
2022-11-02T19:58:21.213Z,94232.93
2022-11-02T20:03:28.624Z,94223.73
2022-11-02T20:08:35.779Z,94227.12
2022-11-02T20:13:46.502Z,94234.83
2022-11-02T20:18:54.851Z,94248.72
2022-11-02T20:24:02.375Z,94252.20
2022-11-02T20:29:12.441Z,94248.97
2022-11-02T20:34:18.823Z,94248.11
2022-11-02T20:39:26.203Z,94248.38
2022-11-02T20:44:33.523Z,94246.26
2022-11-02T20:49:55.968Z,94244.63
2022-11-02T20:54:49.324Z,94240.70
2022-11-02T20:59:57.130Z,94248.36
2022-11-02T21:05:05.462Z,94243.58
2022-11-02T21:10:14.413Z,94242.45
2022-11-02T21:15:21.081Z,94242.20
2022-11-02T21:20:34.237Z,94239.91
2022-11-02T21:25:37.877Z,94239.77
2022-11-02T21:30:44.656Z,94239.36
2022-11-02T21:35:53.004Z,94249.97
2022-11-02T21:41:04.602Z,94248.95
2022-11-02T21:46:11.337Z,94242.55
2022-11-02T21:51:21.347Z,94240.97
2022-11-02T21:56:31.776Z,94236.38
2022-11-02T22:01:49.594Z,94240.94
2022-11-02T22:06:58.773Z,94234.88
2022-11-02T22:12:07.565Z,94226.31
2022-11-02T22:17:22.067Z,94224.17
2022-11-02T22:22:24.328Z,94231.11
2022-11-02T22:27:31.725Z,94233.54
2022-11-02T22:32:38.449Z,94231.45
2022-11-02T22:38:02.824Z,94230.66
2022-11-02T22:43:11.493Z,94238.17
2022-11-02T22:53:28.715Z,94224.23
2022-11-02T22:58:37.516Z,94224.99
2022-11-02T23:03:46.189Z,94229.80
2022-11-02T23:08:55.963Z,94236.03
2022-11-02T23:14:09.604Z,94227.02
2022-11-02T23:19:33.389Z,94228.33
2022-11-02T23:25:01.736Z,94223.52
2022-11-02T23:30:27.238Z,94222.42
2022-11-02T23:35:51.492Z,94226.66
2022-11-02T23:40:58.008Z,94218.91
2022-11-02T23:46:05.406Z,94227.77
2022-11-02T23:51:33.198Z,94234.66
2022-11-02T23:56:46.773Z,94228.79
